createdAt,value
2017-08-13T00:00:03.273Z,84.1
2017-08-13T00:05:03.004Z,84.2
2017-08-13T00:10:03.235Z,84.3
2017-08-13T00:15:13.121Z,84.3
2017-08-13T00:20:02.965Z,84.4
2017-08-13T00:25:05.281Z,84.5
2017-08-13T00:30:03.019Z,84.5
2017-08-13T00:35:02.785Z,84.5
2017-08-13T00:40:08.134Z,84.5
2017-08-13T00:45:02.876Z,84.4
2017-08-13T00:50:05.209Z,84.5
2017-08-13T00:55:10.542Z,84.5
2017-08-13T01:00:05.787Z,84.4
2017-08-13T01:05:05.110Z,84.4
2017-08-13T01:10:05.079Z,84.3
2017-08-13T01:15:02.820Z,84.3
2017-08-13T01:20:05.210Z,84.5
2017-08-13T01:25:05.494Z,84.5
2017-08-13T01:30:08.326Z,84.6
2017-08-13T01:35:10.653Z,84.5
2017-08-13T01:40:05.408Z,84.6
2017-08-13T01:45:05.703Z,84.7
2017-08-13T01:50:03.419Z,84.7
2017-08-13T01:55:03.171Z,84.8
2017-08-13T02:00:02.908Z,84.9
2017-08-13T02:05:10.253Z,85
2017-08-13T02:10:03.478Z,85
2017-08-13T02:15:08.281Z,84.9
2017-08-13T02:20:08.120Z,84.9
2017-08-13T02:25:02.925Z,84.9
2017-08-13T02:30:05.258Z,85.4
2017-08-13T02:35:08.429Z,85.7
2017-08-13T02:40:07.663Z,85.8
2017-08-13T02:45:03.448Z,85.8
2017-08-13T02:50:03.208Z,86.1
2017-08-13T02:55:18.145Z,86.1
2017-08-13T03:00:02.876Z,86.1
2017-08-13T03:05:02.619Z,86.3
2017-08-13T03:10:05.330Z,86.4
2017-08-13T03:15:03.056Z,86.4
2017-08-13T03:20:05.476Z,86.5
2017-08-13T03:25:08.269Z,86.4
2017-08-13T03:30:05.541Z,86.5
2017-08-13T03:35:03.333Z,86.5
2017-08-13T03:40:05.099Z,86.5
2017-08-13T03:45:05.416Z,86.7
2017-08-13T03:50:08.249Z,86.8
2017-08-13T03:55:05.085Z,86.6
2017-08-13T04:00:02.833Z,86.6
2017-08-13T04:05:05.147Z,87
2017-08-13T04:10:13.517Z,86.8
2017-08-13T04:15:03.235Z,86.8
2017-08-13T04:20:03.078Z,86.6
2017-08-13T04:25:05.354Z,86.6
2017-08-13T04:30:05.635Z,86.6
2017-08-13T04:35:03.363Z,86.6
2017-08-13T04:40:05.143Z,86.7
2017-08-13T04:45:05.465Z,86.9
2017-08-13T04:50:08.273Z,86.8
2017-08-13T04:55:08.114Z,86.8
2017-08-13T05:00:02.922Z,86.9
2017-08-13T05:05:05.235Z,87
2017-08-13T05:10:03.409Z,87
2017-08-13T05:15:03.168Z,86.8
2017-08-13T05:20:03.007Z,87
2017-08-13T05:25:02.775Z,86.9
2017-08-13T05:30:02.533Z,86.8
2017-08-13T05:35:03.266Z,86.6
2017-08-13T05:40:06.023Z,86.4
2017-08-13T05:45:05.304Z,86.5
2017-08-13T05:50:10.677Z,86.4
2017-08-13T05:55:03.418Z,86.4
2017-08-13T06:00:05.714Z,86.2
2017-08-13T06:05:06.016Z,85.8
2017-08-13T06:10:08.358Z,85.7
2017-08-13T06:15:03.085Z,85.8
2017-08-13T06:20:02.938Z,84.8
2017-08-13T06:25:07.778Z,84.5
2017-08-13T06:30:07.627Z,84
2017-08-13T06:35:03.686Z,84
2017-08-13T06:40:10.545Z,83
2017-08-13T06:45:21.077Z,81.6
2017-08-13T06:50:08.062Z,81.7
2017-08-13T06:55:05.390Z,82.2
2017-08-13T07:00:05.664Z,82.2
2017-08-13T07:05:11.044Z,82.2
2017-08-13T07:10:15.956Z,80.1
2017-08-13T07:15:05.244Z,81
2017-08-13T07:20:03.127Z,81.1
2017-08-13T07:25:05.423Z,78
2017-08-13T07:30:03.190Z,78.1
2017-08-13T07:35:05.516Z,76.2
2017-08-13T07:40:05.276Z,75.1
2017-08-13T07:45:03.045Z,75.1
2017-08-13T07:50:02.787Z,75.1
2017-08-13T07:55:08.098Z,73.7
2017-08-13T08:00:05.831Z,71.7
2017-08-13T08:05:12.738Z,72.9
2017-08-13T08:10:03.093Z,72.8
2017-08-13T08:15:02.863Z,72.8
2017-08-13T08:20:05.310Z,72.1
2017-08-13T08:25:08.151Z,71.6
2017-08-13T08:30:05.437Z,70.8
2017-08-13T08:35:08.255Z,68.1
2017-08-13T08:40:08.521Z,67.8
2017-08-13T08:45:05.783Z,67.9
2017-08-13T08:50:03.551Z,67.8
2017-08-13T08:55:08.360Z,67.2
2017-08-13T09:00:08.159Z,66.5
2017-08-13T09:05:10.512Z,66.8
2017-08-13T09:10:05.295Z,66.6
2017-08-13T09:15:23.280Z,66.2
2017-08-13T09:20:05.646Z,64.7
2017-08-13T09:25:05.984Z,65.9
2017-08-13T09:30:02.734Z,65.8
2017-08-13T09:35:03.503Z,63.2
2017-08-13T09:40:02.738Z,64.3
2017-08-13T09:45:03.518Z,65.3
2017-08-13T09:50:03.273Z,67.2
2017-08-13T09:55:05.583Z,63.8
2017-08-13T10:00:05.914Z,62.5
2017-08-13T10:05:02.687Z,62.3
2017-08-13T10:10:02.972Z,64
2017-08-13T10:15:02.806Z,65.4
2017-08-13T10:20:02.639Z,65
2017-08-13T10:25:03.426Z,64.3
2017-08-13T10:30:15.813Z,61.9
2017-08-13T10:35:02.535Z,61.7
2017-08-13T10:40:05.384Z,62.6
2017-08-13T10:45:05.710Z,58.4
2017-08-13T10:50:06.009Z,59.7
2017-08-13T10:55:05.307Z,59.5
2017-08-13T11:00:03.050Z,59.4
2017-08-13T11:05:02.780Z,60.8
2017-08-13T11:10:05.548Z,59
2017-08-13T11:15:03.286Z,59
2017-08-13T11:20:08.197Z,59.3
2017-08-13T11:25:05.509Z,58.5
2017-08-13T11:30:03.296Z,58.6
2017-08-13T11:35:08.136Z,57.9
2017-08-13T11:40:05.927Z,56.8
2017-08-13T11:45:02.703Z,56.7
2017-08-13T11:50:06.009Z,57.3
2017-08-13T11:55:10.360Z,58.2
2017-08-13T12:00:10.736Z,58.4
2017-08-13T12:05:03.465Z,58.4
2017-08-13T12:10:07.741Z,60.1
2017-08-13T12:15:03.503Z,60.1
2017-08-13T12:20:03.362Z,60.3
2017-08-13T12:25:08.223Z,60.7
2017-08-13T12:30:02.986Z,60.7
2017-08-13T12:35:02.767Z,60.2
2017-08-13T12:40:10.575Z,59.1
2017-08-13T12:45:13.497Z,57.4
2017-08-13T12:50:08.354Z,57
2017-08-13T12:55:05.724Z,58.6
2017-08-13T13:00:08.531Z,57.7
2017-08-13T13:05:05.782Z,57.9
2017-08-13T13:10:02.735Z,58
2017-08-13T13:15:03.524Z,56.5
2017-08-13T13:20:18.559Z,56
2017-08-13T13:25:05.851Z,56.7
2017-08-13T13:30:02.638Z,56.6
2017-08-13T13:35:03.443Z,56.7
2017-08-13T13:40:15.343Z,58.2
2017-08-13T13:45:08.128Z,59.3
2017-08-13T13:50:05.417Z,57.6
2017-08-13T13:55:08.257Z,58
2017-08-13T14:00:05.563Z,58.5
2017-08-13T14:05:05.854Z,59
2017-08-13T14:10:10.653Z,59.4
2017-08-13T14:15:08.497Z,60.6
2017-08-13T14:20:05.901Z,58.5
2017-08-13T14:25:07.719Z,56.3
2017-08-13T14:30:03.451Z,56.2
2017-08-13T14:35:03.215Z,50.6
2017-08-13T14:40:06.034Z,47.2
2017-08-13T14:45:07.867Z,48
2017-08-13T14:50:02.626Z,47.9
2017-08-13T14:55:05.922Z,48.5
2017-08-13T15:00:10.273Z,48
2017-08-13T15:05:08.055Z,47.4
2017-08-13T15:10:05.848Z,47.5
2017-08-13T15:15:10.209Z,46.5
2017-08-13T15:20:05.577Z,45.4
2017-08-13T15:25:03.377Z,45.4
2017-08-13T15:30:08.178Z,48.9
2017-08-13T15:35:05.434Z,51.1
2017-08-13T15:40:10.248Z,52.1
2017-08-13T15:45:03.001Z,52.1
2017-08-13T15:50:17.951Z,55
2017-08-13T15:55:05.264Z,54.2
2017-08-13T16:00:08.098Z,53.9
2017-08-13T16:05:07.909Z,53.7
2017-08-13T16:10:05.701Z,54.1
2017-08-13T16:15:05.998Z,55.1
2017-08-13T16:20:10.402Z,55.7
2017-08-13T16:25:05.710Z,55.1
2017-08-13T16:30:05.999Z,54
2017-08-13T16:35:02.736Z,54
2017-08-13T16:40:05.524Z,55.5
2017-08-13T16:45:05.862Z,57.1
2017-08-13T16:50:12.727Z,56.2
2017-08-13T16:55:06.026Z,56.5
2017-08-13T17:00:07.848Z,56.1
2017-08-13T17:05:05.157Z,56.3
2017-08-13T17:10:10.966Z,57
2017-08-13T17:15:02.731Z,56.9
2017-08-13T17:20:10.155Z,58.2
2017-08-13T17:25:10.541Z,58.7
2017-08-13T17:30:08.336Z,58.3
2017-08-13T17:35:03.100Z,58.3
2017-08-13T17:40:21.012Z,59.1
2017-08-13T17:45:10.337Z,59.5
2017-08-13T17:50:03.119Z,59.5
2017-08-13T17:55:07.963Z,61.4
2017-08-13T18:00:07.795Z,59.5
2017-08-13T18:05:10.148Z,60.3
2017-08-13T18:10:05.866Z,61
2017-08-13T18:15:05.179Z,61
2017-08-13T18:20:03.020Z,61
2017-08-13T18:25:17.968Z,63
2017-08-13T18:30:05.232Z,63.4
2017-08-13T18:35:05.510Z,64
2017-08-13T18:40:05.329Z,64.1
2017-08-13T18:45:33.429Z,64.3
2017-08-13T18:50:03.159Z,64.3
2017-08-13T18:55:05.478Z,64.4
2017-08-13T19:00:03.257Z,64.4
2017-08-13T19:05:03.010Z,64.9
2017-08-13T19:10:03.290Z,65.5
2017-08-13T19:15:05.608Z,67.3
2017-08-13T19:20:11.053Z,67.6
2017-08-13T19:25:02.804Z,67.6
2017-08-13T19:30:07.735Z,68.7
2017-08-13T19:35:08.579Z,69.2
2017-08-13T19:40:05.332Z,69.8
2017-08-13T19:45:03.113Z,69.8
2017-08-13T19:50:05.421Z,70.8
2017-08-13T19:55:10.806Z,71.2
2017-08-13T20:00:03.523Z,71.2
2017-08-13T20:05:03.286Z,71.6
2017-08-13T20:10:03.567Z,71.7
2017-08-13T20:15:05.897Z,73.1
2017-08-13T20:20:02.709Z,73.1
2017-08-13T20:25:08.602Z,73.3
2017-08-13T20:30:03.355Z,73.3
2017-08-13T20:35:05.653Z,74.2
2017-08-13T20:40:15.500Z,74.6
2017-08-13T20:45:05.769Z,74.7
2017-08-13T20:50:26.314Z,75
2017-08-13T20:55:03.093Z,75
2017-08-13T21:00:02.874Z,75.2
2017-08-13T21:05:12.795Z,76
2017-08-13T21:15:08.341Z,76.9
2017-08-13T21:20:05.707Z,76.8
2017-08-13T21:25:03.485Z,76.8
2017-08-13T21:30:03.223Z,77.1
2017-08-13T21:35:10.566Z,77.7
2017-08-13T21:40:05.289Z,77.9
2017-08-13T21:45:03.081Z,77.8
2017-08-13T21:50:05.416Z,77.9
2017-08-13T21:55:03.210Z,78
2017-08-13T22:00:05.510Z,78.6
2017-08-13T22:05:08.357Z,78.9
2017-08-13T22:10:07.827Z,78.8
2017-08-13T22:15:02.744Z,78.7
2017-08-13T22:20:02.577Z,79
2017-08-13T22:25:03.358Z,79.3
2017-08-13T22:30:20.840Z,80
2017-08-13T22:35:02.599Z,79.9
2017-08-13T22:40:07.890Z,80
2017-08-13T22:45:05.169Z,80.2
2017-08-13T22:50:18.111Z,80.5
2017-08-13T22:55:07.941Z,80.4
2017-08-13T23:00:02.678Z,80.3
2017-08-13T23:05:11.044Z,80.4
2017-08-13T23:10:03.309Z,80.3
2017-08-13T23:15:08.137Z,80.6
2017-08-13T23:20:02.975Z,80.6
2017-08-13T23:25:07.972Z,80.7
2017-08-13T23:30:17.931Z,80.7
2017-08-13T23:35:10.264Z,80.8
2017-08-13T23:40:06.065Z,80.9
2017-08-13T23:45:05.348Z,81.2
2017-08-13T23:50:05.660Z,81.4
2017-08-13T23:55:08.465Z,81.7
